Time;durP1;ratioP1;P1;durP2;ratioP2;P2;SDS_P1;SDS_P2;PMS_P1;PMS_P2;Temp;Humidity;BMP_temperature;BMP_pressure;BME280_temperature;BME280_humidity;BME280_pressure;Samples;Min_cycle;Max_cycle;Signal;HPM_P1;HPM_P2
2022/01/06 00:00:30;;;;;;;5.30;1.30;;;;;;;;;;5060912;28;20044;-66
2022/01/06 00:02:56;;;;;;;4.57;1.47;;;;;;;;;;5057335;28;20056;-66
2022/01/06 00:05:23;;;;;;;4.43;1.33;;;;;;;;;;5044404;28;20576;-66
2022/01/06 00:07:51;;;;;;;6.28;1.52;;;;;;;;;;5037327;28;20049;-66
2022/01/06 00:10:17;;;;;;;6.35;1.70;;;;;;;;;;5039041;28;20144;-66
2022/01/06 00:15:36;;;;;;;6.13;2.27;;;;;;;;;;5045233;28;20049;-66
2022/01/06 00:25:48;;;;;;;6.73;1.50;;;;;;;;;;5039649;28;20049;-66
2022/01/06 00:28:14;;;;;;;5.75;1.40;;;;;;;;;;5038943;28;20077;-66
2022/01/06 00:30:41;;;;;;;2.97;1.23;;;;;;;;;;5037772;28;20092;-66
2022/01/06 00:33:14;;;;;;;2.83;1.07;;;;;;;;;;5042008;28;20073;-66
2022/01/06 00:35:40;;;;;;;4.43;1.40;;;;;;;;;;5036876;28;20077;-66
2022/01/06 00:38:07;;;;;;;11.83;1.70;;;;;;;;;;5033976;28;20081;-67
2022/01/06 00:40:35;;;;;;;1.95;1.08;;;;;;;;;;5043008;28;20072;-66
2022/01/06 00:43:03;;;;;;;5.25;1.38;;;;;;;;;;5038668;28;20468;-66
2022/01/06 00:45:30;;;;;;;2.17;1.37;;;;;;;;;;5036965;28;20080;-67
2022/01/06 00:47:57;;;;;;;;;;;;;;;;;;5037652;28;20053;-66
2022/01/06 00:50:24;;;;;;;6.00;1.63;;;;;;;;;;5036622;28;20024;-66
2022/01/06 00:52:50;;;;;;;4.97;1.38;;;;;;;;;;5038326;28;20079;-66
2022/01/06 00:55:20;;;;;;;5.40;1.50;;;;;;;;;;5041958;28;20132;-66
2022/01/06 00:57:47;;;;;;;7.53;1.40;;;;;;;;;;5041941;28;20385;-66
2022/01/06 01:00:13;;;;;;;3.97;1.70;;;;;;;;;;5039956;28;20140;-66
2022/01/06 01:02:42;;;;;;;3.13;1.60;;;;;;;;;;5044034;28;20044;-66
2022/01/06 01:05:09;;;;;;;9.32;2.03;;;;;;;;;;5064242;28;20511;-66
2022/01/06 01:07:35;;;;;;;8.07;1.80;;;;;;;;;;5084610;28;20089;-66
2022/01/06 01:10:02;;;;;;;1.67;1.10;;;;;;;;;;5079304;28;20055;-66
2022/01/06 01:12:29;;;;;;;5.53;1.60;;;;;;;;;;5086523;28;20094;-66
2022/01/06 01:14:59;;;;;;;3.20;0.98;;;;;;;;;;5080770;28;20139;-66
2022/01/06 01:17:27;;;;;;;3.57;1.50;;;;;;;;;;5079697;28;20671;-66
2022/01/06 01:19:53;;;;;;;4.43;1.40;;;;;;;;;;5083609;28;20127;-66
2022/01/06 01:22:20;;;;;;;9.25;1.52;;;;;;;;;;5075651;28;20131;-66
2022/01/06 01:24:46;;;;;;;4.90;1.33;;;;;;;;;;5077253;28;20569;-66
2022/01/06 01:27:15;;;;;;;4.63;1.20;;;;;;;;;;5074788;28;20540;-66
2022/01/06 01:29:56;;;;;;;7.20;1.93;;;;;;;;;;5081194;28;20401;-66
2022/01/06 01:32:32;;;;;;;6.60;1.50;;;;;;;;;;5085232;28;20085;-66
2022/01/06 01:35:01;;;;;;;3.07;1.23;;;;;;;;;;5082245;28;20086;-66
2022/01/06 01:37:28;;;;;;;9.50;2.13;;;;;;;;;;5078391;28;20131;-66
2022/01/06 01:39:55;;;;;;;6.63;1.55;;;;;;;;;;5079783;28;20078;-66
2022/01/06 01:42:22;;;;;;;5.68;1.70;;;;;;;;;;5079047;28;20128;-66
2022/01/06 01:44:49;;;;;;;5.53;1.60;;;;;;;;;;5075549;28;20135;-66
2022/01/06 01:47:23;;;;;;;10.13;1.75;;;;;;;;;;5072180;28;20053;-66
2022/01/06 01:49:54;;;;;;;5.03;1.37;;;;;;;;;;5077088;28;20072;-66
2022/01/06 01:52:21;;;;;;;11.67;1.77;;;;;;;;;;5083722;28;20044;-66
2022/01/06 01:54:47;;;;;;;7.90;1.67;;;;;;;;;;5069974;28;20408;-66
2022/01/06 01:57:20;;;;;;;6.57;1.40;;;;;;;;;;5071272;28;20411;-66
2022/01/06 01:59:46;;;;;;;5.93;1.60;;;;;;;;;;5087931;28;20468;-66
2022/01/06 02:02:13;;;;;;;4.40;1.48;;;;;;;;;;5082137;28;20386;-66
2022/01/06 02:04:40;;;;;;;2.38;1.40;;;;;;;;;;5080612;28;20136;-66
2022/01/06 02:07:07;;;;;;;10.45;1.75;;;;;;;;;;5081462;28;20080;-66
2022/01/06 02:09:33;;;;;;;15.23;1.77;;;;;;;;;;5078595;28;20054;-66
2022/01/06 02:12:01;;;;;;;7.90;1.53;;;;;;;;;;5085168;28;20055;-66
2022/01/06 02:14:27;;;;;;;3.42;1.65;;;;;;;;;;5081711;28;20080;-66
2022/01/06 02:16:54;;;;;;;4.80;1.70;;;;;;;;;;5077222;28;20123;-66
2022/01/06 02:19:28;;;;;;;3.37;1.53;;;;;;;;;;5057835;28;20147;-66
2022/01/06 02:21:54;;;;;;;2.75;1.52;;;;;;;;;;5059451;28;20094;-67
2022/01/06 02:24:21;;;;;;;11.30;2.70;;;;;;;;;;5058031;28;20069;-67
2022/01/06 02:26:47;;;;;;;5.85;2.00;;;;;;;;;;5061697;28;20139;-67
2022/01/06 02:29:14;;;;;;;6.03;1.20;;;;;;;;;;5059004;28;20128;-66
2022/01/06 02:31:41;;;;;;;6.93;1.73;;;;;;;;;;5058860;28;20474;-66
2022/01/06 02:34:09;;;;;;;5.77;1.37;;;;;;;;;;5062248;28;20310;-66
2022/01/06 02:36:35;;;;;;;4.50;1.60;;;;;;;;;;5065503;28;20080;-66
2022/01/06 02:39:02;;;;;;;4.43;1.45;;;;;;;;;;5059392;28;20127;-66
2022/01/06 02:41:32;;;;;;;4.57;1.83;;;;;;;;;;5065183;28;20084;-67
2022/01/06 02:43:58;;;;;;;3.78;1.45;;;;;;;;;;5059623;28;20132;-67
2022/01/06 02:46:27;;;;;;;9.90;1.73;;;;;;;;;;5057231;28;20057;-66
2022/01/06 02:48:53;;;;;;;4.95;1.35;;;;;;;;;;5059536;28;20404;-67
2022/01/06 02:51:20;;;;;;;10.45;2.05;;;;;;;;;;5064259;28;20240;-66
2022/01/06 02:53:50;;;;;;;11.23;1.70;;;;;;;;;;5059144;28;20489;-66
2022/01/06 02:56:17;;;;;;;8.93;1.67;;;;;;;;;;5059445;28;20123;-66
2022/01/06 02:58:43;;;;;;;3.90;1.63;;;;;;;;;;5058549;28;20120;-66
2022/01/06 03:01:09;;;;;;;3.60;1.53;;;;;;;;;;5066973;28;20742;-66
2022/01/06 03:03:36;;;;;;;9.32;1.90;;;;;;;;;;5058246;28;20043;-66
2022/01/06 03:06:03;;;;;;;6.28;1.80;;;;;;;;;;5060271;28;20568;-67
2022/01/06 03:08:29;;;;;;;1.67;1.07;;;;;;;;;;5061120;28;20128;-66
2022/01/06 03:10:57;;;;;;;4.30;1.20;;;;;;;;;;5060065;28;20060;-66
2022/01/06 03:13:23;;;;;;;5.60;2.00;;;;;;;;;;5062323;28;20077;-66
2022/01/06 03:15:50;;;;;;;8.63;1.60;;;;;;;;;;5058749;28;20072;-66
2022/01/06 03:18:23;;;;;;;7.30;2.03;;;;;;;;;;5058855;28;20078;-66
2022/01/06 03:20:50;;;;;;;4.38;1.42;;;;;;;;;;5059615;28;20106;-66
2022/01/06 03:23:17;;;;;;;6.80;0.90;;;;;;;;;;5059064;28;20111;-66
2022/01/06 03:25:47;;;;;;;10.20;2.10;;;;;;;;;;5079387;28;20812;-66
2022/01/06 03:28:13;;;;;;;4.77;1.50;;;;;;;;;;5077555;28;20119;-66
2022/01/06 03:30:40;;;;;;;9.07;1.97;;;;;;;;;;5077654;28;20386;-66
2022/01/06 03:33:13;;;;;;;7.20;1.70;;;;;;;;;;5059016;28;20131;-66
2022/01/06 03:35:39;;;;;;;8.83;1.90;;;;;;;;;;5058976;28;20592;-66
2022/01/06 03:38:06;;;;;;;5.73;1.20;;;;;;;;;;5060716;28;20295;-66
2022/01/06 03:40:35;;;;;;;7.03;1.70;;;;;;;;;;5063756;28;20135;-66
2022/01/06 03:43:01;;;;;;;4.68;1.40;;;;;;;;;;5079968;28;20071;-66
2022/01/06 03:45:28;;;;;;;11.73;2.23;;;;;;;;;;5076681;28;20044;-66
2022/01/06 03:48:03;;;;;;;4.40;1.60;;;;;;;;;;5077692;28;20055;-66
2022/01/06 03:50:30;;;;;;;5.57;1.70;;;;;;;;;;5078057;28;20553;-66
2022/01/06 03:52:56;;;;;;;6.15;1.50;;;;;;;;;;5074884;28;20139;-66
2022/01/06 03:55:25;;;;;;;9.20;2.03;;;;;;;;;;5079641;28;20079;-66
2022/01/06 03:57:52;;;;;;;5.40;1.33;;;;;;;;;;5077603;28;20127;-66
2022/01/06 04:00:19;;;;;;;6.33;1.70;;;;;;;;;;5078648;28;20127;-66
2022/01/06 04:02:48;;;;;;;6.33;1.50;;;;;;;;;;5075129;28;20135;-66
2022/01/06 04:05:15;;;;;;;6.13;1.67;;;;;;;;;;5079598;28;20060;-66
2022/01/06 04:07:42;;;;;;;5.63;1.77;;;;;;;;;;5076224;28;20084;-66
2022/01/06 04:10:09;;;;;;;4.65;1.58;;;;;;;;;;5075310;28;20072;-66
2022/01/06 04:12:37;;;;;;;3.80;1.45;;;;;;;;;;5080057;28;20138;-66
2022/01/06 04:15:04;;;;;;;6.47;1.80;;;;;;;;;;5081317;28;20155;-66
2022/01/06 04:17:30;;;;;;;;;;;;;;;;;;5076914;28;20094;-66
2022/01/06 04:19:57;;;;;;;13.07;1.70;;;;;;;;;;5082980;28;20008;-66
2022/01/06 04:22:23;;;;;;;4.70;1.40;;;;;;;;;;5076864;28;20047;-66
2022/01/06 04:24:50;;;;;;;4.07;1.48;;;;;;;;;;5078033;28;20803;-66
2022/01/06 04:27:16;;;;;;;7.10;1.33;;;;;;;;;;5076697;28;20533;-66
2022/01/06 04:29:42;;;;;;;2.60;1.15;;;;;;;;;;5077480;28;20189;-66
2022/01/06 04:32:15;;;;;;;5.23;1.40;;;;;;;;;;5075445;28;20094;-66
2022/01/06 04:34:41;;;;;;;4.83;1.30;;;;;;;;;;5081794;28;20090;-66
2022/01/06 04:37:08;;;;;;;5.75;1.70;;;;;;;;;;5077416;28;20131;-66
2022/01/06 04:39:38;;;;;;;10.20;1.80;;;;;;;;;;5080214;28;20552;-66
2022/01/06 04:42:04;;;;;;;6.17;1.43;;;;;;;;;;5078241;28;20770;-66
2022/01/06 04:44:31;;;;;;;7.45;2.00;;;;;;;;;;5077716;28;20527;-67
2022/01/06 04:46:57;;;;;;;6.18;2.25;;;;;;;;;;5077256;28;20074;-66
2022/01/06 04:49:24;;;;;;;10.77;1.75;;;;;;;;;;5078532;28;20041;-66
2022/01/06 04:51:57;;;;;;;4.75;1.40;;;;;;;;;;5080535;28;20508;-66
2022/01/06 04:54:26;;;;;;;5.83;1.53;;;;;;;;;;5075950;28;20075;-66
2022/01/06 04:56:52;;;;;;;3.57;1.23;;;;;;;;;;5074314;28;20139;-66
2022/01/06 04:59:19;;;;;;;5.10;2.00;;;;;;;;;;5076317;28;20282;-66
2022/01/06 05:01:47;;;;;;;4.67;1.80;;;;;;;;;;5084071;28;20821;-66
2022/01/06 05:04:14;;;;;;;9.75;1.63;;;;;;;;;;5072832;28;20521;-66
2022/01/06 05:06:40;;;;;;;9.38;2.10;;;;;;;;;;5056312;28;20140;-67
2022/01/06 05:09:07;;;;;;;7.22;1.63;;;;;;;;;;5057082;28;20127;-66
2022/01/06 05:11:33;;;;;;;6.00;1.63;;;;;;;;;;5056467;28;20080;-66
2022/01/06 05:14:00;;;;;;;8.00;1.70;;;;;;;;;;5057771;28;20121;-66
2022/01/06 05:16:26;;;;;;;3.92;1.55;;;;;;;;;;5058284;28;20051;-66
2022/01/06 05:18:53;;;;;;;6.35;1.30;;;;;;;;;;5057321;28;20127;-66
2022/01/06 05:21:19;;;;;;;7.30;1.48;;;;;;;;;;5059260;28;20496;-66
2022/01/06 05:23:49;;;;;;;12.43;1.60;;;;;;;;;;5039691;28;20124;-69
2022/01/06 05:26:15;;;;;;;14.00;2.10;;;;;;;;;;5054930;28;20480;-69
2022/01/06 05:28:42;;;;;;;4.25;1.50;;;;;;;;;;5058406;28;20689;-69
2022/01/06 05:31:13;;;;;;;8.63;1.60;;;;;;;;;;5053652;28;20045;-69
2022/01/06 05:33:40;;;;;;;4.55;1.38;;;;;;;;;;5059794;28;20097;-69
2022/01/06 05:36:07;;;;;;;4.68;1.40;;;;;;;;;;5055373;28;20099;-69
2022/01/06 05:38:40;;;;;;;9.23;1.77;;;;;;;;;;5054388;28;20057;-69
2022/01/06 05:41:06;;;;;;;11.23;1.70;;;;;;;;;;5047453;28;20077;-69
2022/01/06 05:43:33;;;;;;;10.10;1.57;;;;;;;;;;5062704;28;20169;-70
2022/01/06 05:46:00;;;;;;;3.43;1.60;;;;;;;;;;5058738;28;20040;-69
2022/01/06 05:48:27;;;;;;;2.83;1.63;;;;;;;;;;5060596;28;20076;-69
2022/01/06 05:50:53;;;;;;;4.70;2.90;;;;;;;;;;5060585;28;20055;-66
2022/01/06 05:53:20;;;;;;;6.07;1.35;;;;;;;;;;5062185;28;20139;-66
2022/01/06 05:55:46;;;;;;;6.55;1.65;;;;;;;;;;5061779;28;20512;-66
2022/01/06 05:58:12;;;;;;;1.90;1.10;;;;;;;;;;5058907;28;20494;-66
2022/01/06 06:00:40;;;;;;;7.07;1.60;;;;;;;;;;5061764;28;20123;-66
2022/01/06 06:03:07;;;;;;;5.82;1.73;;;;;;;;;;5044699;28;20049;-66
2022/01/06 06:05:34;;;;;;;4.22;1.90;;;;;;;;;;5060788;28;20525;-66
2022/01/06 06:08:00;;;;;;;9.95;1.90;;;;;;;;;;5062241;28;20060;-66
2022/01/06 06:10:27;;;;;;;5.00;1.75;;;;;;;;;;5060935;28;20045;-67
2022/01/06 06:12:53;;;;;;;5.15;1.55;;;;;;;;;;5060983;28;20136;-66
2022/01/06 06:15:21;;;;;;;5.57;1.80;;;;;;;;;;5057602;28;20045;-66
2022/01/06 06:17:48;;;;;;;6.10;1.52;;;;;;;;;;5062995;28;20053;-66
2022/01/06 06:20:14;;;;;;;6.97;1.63;;;;;;;;;;5064101;28;20083;-66
2022/01/06 06:22:47;;;;;;;5.30;1.60;;;;;;;;;;5059524;28;20416;-66
2022/01/06 06:25:13;;;;;;;4.60;2.00;;;;;;;;;;5059734;28;20087;-66
2022/01/06 06:27:40;;;;;;;6.60;1.87;;;;;;;;;;5055740;28;20136;-66
2022/01/06 06:30:07;;;;;;;7.70;2.03;;;;;;;;;;5057389;28;20371;-66
2022/01/06 06:32:35;;;;;;;6.63;1.90;;;;;;;;;;5062479;28;20099;-66
2022/01/06 06:35:02;;;;;;;4.30;1.70;;;;;;;;;;5055685;28;20048;-66
2022/01/06 06:37:29;;;;;;;8.63;2.00;;;;;;;;;;5062105;28;20139;-66
2022/01/06 06:39:57;;;;;;;5.95;1.38;;;;;;;;;;5058113;28;20127;-66
2022/01/06 06:42:23;;;;;;;5.40;1.60;;;;;;;;;;5054945;28;20131;-66
2022/01/06 06:44:57;;;;;;;10.37;1.97;;;;;;;;;;5060982;28;20080;-66
2022/01/06 06:47:24;;;;;;;9.45;1.98;;;;;;;;;;5056759;28;20080;-66
2022/01/06 06:49:50;;;;;;;4.03;1.38;;;;;;;;;;5060874;28;20602;-66
2022/01/06 06:52:17;;;;;;;6.45;2.05;;;;;;;;;;5057021;28;20098;-66
2022/01/06 06:54:43;;;;;;;8.35;1.80;;;;;;;;;;5061490;28;20076;-66
2022/01/06 06:57:10;;;;;;;8.88;1.90;;;;;;;;;;5060412;28;20084;-66
2022/01/06 06:59:37;;;;;;;;;;;;;;;;;;5061142;28;20048;-66
2022/01/06 07:02:03;;;;;;;3.73;1.80;;;;;;;;;;5058437;28;19975;-66
2022/01/06 07:04:30;;;;;;;4.68;1.67;;;;;;;;;;5056445;28;20045;-66
2022/01/06 07:07:13;;;;;;;5.77;2.17;;;;;;;;;;5058712;28;20588;-66
2022/01/06 07:09:39;;;;;;;3.75;1.77;;;;;;;;;;5056896;28;20132;-66
2022/01/06 07:12:06;;;;;;;4.35;1.60;;;;;;;;;;5056693;28;20084;-65
2022/01/06 07:14:33;;;;;;;6.20;1.55;;;;;;;;;;5058944;28;20132;-66
2022/01/06 07:17:00;;;;;;;9.23;2.03;;;;;;;;;;5059538;28;20081;-66
2022/01/06 07:19:26;;;;;;;11.43;1.90;;;;;;;;;;5057866;28;20570;-65
2022/01/06 07:21:53;;;;;;;12.63;2.25;;;;;;;;;;5056445;28;20144;-66
2022/01/06 07:24:19;;;;;;;3.63;1.50;;;;;;;;;;5064701;28;20577;-66
2022/01/06 07:26:46;;;;;;;2.90;1.35;;;;;;;;;;5058167;28;20109;-65
2022/01/06 07:29:12;;;;;;;15.48;7.53;;;;;;;;;;5057323;28;20068;-65
2022/01/06 07:31:39;;;;;;;3.03;1.65;;;;;;;;;;5054288;28;20485;-66
2022/01/06 07:34:06;;;;;;;8.23;1.87;;;;;;;;;;5059204;28;20048;-66
2022/01/06 07:36:33;;;;;;;4.82;1.58;;;;;;;;;;5057875;28;20044;-65
2022/01/06 07:38:59;;;;;;;4.50;1.70;;;;;;;;;;5058209;28;20063;-66
2022/01/06 07:41:26;;;;;;;6.70;1.90;;;;;;;;;;5059993;28;20245;-65
2022/01/06 07:43:52;;;;;;;8.52;2.03;;;;;;;;;;5061733;28;20110;-65
2022/01/06 07:46:19;;;;;;;6.30;1.83;;;;;;;;;;5053885;28;20045;-66
2022/01/06 07:48:55;;;;;;;7.50;2.97;;;;;;;;;;5052663;28;20866;-66
2022/01/06 07:51:25;;;;;;;6.13;2.30;;;;;;;;;;5057285;28;20079;-67
2022/01/06 07:53:52;;;;;;;6.50;2.17;;;;;;;;;;5059039;28;20606;-66
2022/01/06 07:56:18;;;;;;;5.90;2.35;;;;;;;;;;5061649;28;20140;-66
2022/01/06 07:58:45;;;;;;;3.25;1.90;;;;;;;;;;5058771;28;20455;-66
2022/01/06 08:01:14;;;;;;;7.23;2.20;;;;;;;;;;5062547;28;20087;-66
2022/01/06 08:03:41;;;;;;;10.52;2.25;;;;;;;;;;5055067;28;20136;-66
2022/01/06 08:06:08;;;;;;;5.82;1.88;;;;;;;;;;5057919;28;20080;-66
2022/01/06 08:08:35;;;;;;;;;;;;;;;;;;5059444;28;20078;-66
2022/01/06 08:11:01;;;;;;;6.07;2.00;;;;;;;;;;5055921;28;19962;-66
2022/01/06 08:13:28;;;;;;;6.00;2.08;;;;;;;;;;5077971;28;20097;-66
2022/01/06 08:15:55;;;;;;;6.57;2.17;;;;;;;;;;5076566;28;20074;-66
2022/01/06 08:18:22;;;;;;;7.45;2.17;;;;;;;;;;5077713;28;20522;-66
2022/01/06 08:20:48;;;;;;;5.93;2.15;;;;;;;;;;5077582;28;20131;-66
2022/01/06 08:23:15;;;;;;;5.82;1.90;;;;;;;;;;5080934;28;20123;-67
2022/01/06 08:25:41;;;;;;;24.92;3.83;;;;;;;;;;5076960;28;20080;-66
2022/01/06 08:28:08;;;;;;;24.02;3.05;;;;;;;;;;5094396;28;20055;-66
2022/01/06 08:30:35;;;;;;;6.82;1.80;;;;;;;;;;5084098;28;20076;-66
2022/01/06 08:33:01;;;;;;;8.93;1.92;;;;;;;;;;5077443;28;20079;-66
2022/01/06 08:35:28;;;;;;;3.60;1.83;;;;;;;;;;5081538;28;20079;-66
2022/01/06 08:37:54;;;;;;;6.28;1.90;;;;;;;;;;5083904;28;20086;-66
2022/01/06 08:40:21;;;;;;;3.38;1.33;;;;;;;;;;5075248;28;20044;-67
2022/01/06 08:42:48;;;;;;;4.97;1.60;;;;;;;;;;5079676;28;20143;-67
2022/01/06 08:45:16;;;;;;;4.87;1.60;;;;;;;;;;5053470;28;20164;-67
2022/01/06 08:47:43;;;;;;;5.07;1.50;;;;;;;;;;5058196;28;20099;-67
2022/01/06 08:50:16;;;;;;;7.63;1.70;;;;;;;;;;5057976;28;20051;-67
2022/01/06 08:52:51;;;;;;;9.37;2.00;;;;;;;;;;5054217;28;20131;-67
2022/01/06 08:55:17;;;;;;;7.37;1.80;;;;;;;;;;5054651;28;20068;-67
2022/01/06 08:57:43;;;;;;;12.30;2.30;;;;;;;;;;5059246;28;20128;-67
2022/01/06 09:00:14;;;;;;;7.33;2.63;;;;;;;;;;5059151;28;20395;-69
2022/01/06 09:02:40;;;;;;;6.25;2.88;;;;;;;;;;5055547;28;20136;-68
2022/01/06 09:05:08;;;;;;;3.20;1.88;;;;;;;;;;5060919;28;20084;-67
2022/01/06 09:07:41;;;;;;;6.30;2.40;;;;;;;;;;5059810;28;20861;-67
2022/01/06 09:10:08;;;;;;;9.90;2.53;;;;;;;;;;5058827;28;20493;-67
2022/01/06 09:12:34;;;;;;;3.85;2.30;;;;;;;;;;5055682;28;20136;-67
2022/01/06 09:15:01;;;;;;;8.88;2.20;;;;;;;;;;5060129;28;20075;-67
2022/01/06 09:17:28;;;;;;;4.55;2.03;;;;;;;;;;5060761;28;20090;-67
2022/01/06 09:19:54;;;;;;;4.47;2.30;;;;;;;;;;5061213;28;20131;-67
2022/01/06 09:22:21;;;;;;;13.55;2.13;;;;;;;;;;5056644;28;20335;-67
2022/01/06 09:24:49;;;;;;;6.88;2.58;;;;;;;;;;5061905;28;20136;-67
2022/01/06 09:27:15;;;;;;;7.20;2.13;;;;;;;;;;5056271;28;20041;-67
2022/01/06 09:29:48;;;;;;;5.53;2.30;;;;;;;;;;5060777;28;20143;-67
2022/01/06 09:32:14;;;;;;;7.30;2.10;;;;;;;;;;5062274;28;20683;-68
2022/01/06 09:34:41;;;;;;;3.17;1.83;;;;;;;;;;5058442;28;20135;-67
2022/01/06 09:37:10;;;;;;;4.23;2.00;;;;;;;;;;5057995;28;20381;-67
2022/01/06 09:39:36;;;;;;;8.23;1.63;;;;;;;;;;5058484;28;20143;-67
2022/01/06 09:42:03;;;;;;;5.82;2.13;;;;;;;;;;5060216;28;20049;-67
2022/01/06 09:44:31;;;;;;;5.73;2.33;;;;;;;;;;5060828;28;20079;-67
2022/01/06 09:47:01;;;;;;;7.50;2.07;;;;;;;;;;5060264;28;20574;-67
2022/01/06 09:49:27;;;;;;;6.33;2.10;;;;;;;;;;5059731;28;20445;-67
2022/01/06 09:51:55;;;;;;;8.13;2.13;;;;;;;;;;5058048;28;20531;-67
2022/01/06 09:54:21;;;;;;;4.33;1.60;;;;;;;;;;5065040;28;20079;-67
2022/01/06 09:56:48;;;;;;;9.43;1.80;;;;;;;;;;5065458;28;20333;-67
2022/01/06 09:59:17;;;;;;;5.80;2.50;;;;;;;;;;5066631;28;20131;-67
2022/01/06 10:01:43;;;;;;;9.93;3.42;;;;;;;;;;5063765;28;20080;-67
2022/01/06 10:04:27;;;;;;;5.07;1.67;;;;;;;;;;5057767;28;20085;-67
2022/01/06 10:06:58;;;;;;;8.37;2.33;;;;;;;;;;5063661;28;20080;-67
2022/01/06 10:09:25;;;;;;;5.57;2.00;;;;;;;;;;5060116;28;20095;-67
2022/01/06 10:11:56;;;;;;;4.28;2.20;;;;;;;;;;5054886;28;20128;-67
2022/01/06 10:14:31;;;;;;;8.57;2.27;;;;;;;;;;5061490;28;20121;-67
2022/01/06 10:16:58;;;;;;;7.43;2.20;;;;;;;;;;5063138;28;20044;-67
2022/01/06 10:19:25;;;;;;;9.75;2.97;;;;;;;;;;5060766;28;20140;-67
2022/01/06 10:21:57;;;;;;;2.38;1.42;;;;;;;;;;5061982;28;20077;-68
2022/01/06 10:24:25;;;;;;;6.93;2.53;;;;;;;;;;5060421;28;20539;-67
2022/01/06 10:27:06;;;;;;;5.70;2.40;;;;;;;;;;5062170;28;20132;-67
2022/01/06 10:29:34;;;;;;;16.07;4.20;;;;;;;;;;5058944;28;20131;-67
2022/01/06 10:32:09;;;;;;;14.43;5.60;;;;;;;;;;5059297;28;20080;-67
2022/01/06 10:34:36;;;;;;;6.40;2.77;;;;;;;;;;5061789;28;20136;-67
2022/01/06 10:37:15;;;;;;;5.00;2.10;;;;;;;;;;5050845;28;20080;-68
2022/01/06 10:39:43;;;;;;;8.48;2.50;;;;;;;;;;5062224;28;20087;-67
2022/01/06 10:42:10;;;;;;;6.00;3.13;;;;;;;;;;5058551;28;20143;-67
2022/01/06 10:44:49;;;;;;;4.15;2.33;;;;;;;;;;5062269;28;20136;-67
2022/01/06 10:47:30;;;;;;;5.75;2.03;;;;;;;;;;5057701;28;20045;-67
2022/01/06 10:50:17;;;;;;;5.55;2.10;;;;;;;;;;5059319;28;20139;-67
2022/01/06 10:52:51;;;;;;;7.55;2.05;;;;;;;;;;5060683;28;20171;-67
2022/01/06 10:55:17;;;;;;;6.78;2.30;;;;;;;;;;5054604;28;20128;-67
2022/01/06 10:57:51;;;;;;;4.68;3.00;;;;;;;;;;5058201;28;20473;-67
2022/01/06 11:00:19;;;;;;;8.75;2.53;;;;;;;;;;5063949;28;20611;-67
2022/01/06 11:02:45;;;;;;;6.93;2.20;;;;;;;;;;5057676;28;20076;-68
2022/01/06 11:05:12;;;;;;;4.82;1.80;;;;;;;;;;5056999;28;20118;-68
2022/01/06 11:07:39;;;;;;;3.67;1.58;;;;;;;;;;5056260;28;20132;-67
2022/01/06 11:10:13;;;;;;;5.10;1.97;;;;;;;;;;5052410;28;20084;-67
2022/01/06 11:12:41;;;;;;;6.07;2.65;;;;;;;;;;5055005;28;20052;-69
2022/01/06 11:15:08;;;;;;;4.68;2.47;;;;;;;;;;5055819;28;20136;-67
2022/01/06 11:17:35;;;;;;;12.68;4.72;;;;;;;;;;5059896;28;20147;-67
2022/01/06 11:20:02;;;;;;;10.63;5.07;;;;;;;;;;5057302;28;20151;-68
2022/01/06 11:22:28;;;;;;;9.27;4.90;;;;;;;;;;5057632;28;20500;-68
2022/01/06 11:24:56;;;;;;;7.70;3.53;;;;;;;;;;5058101;28;20043;-67
2022/01/06 11:27:34;;;;;;;5.15;2.50;;;;;;;;;;5060807;28;20132;-67
2022/01/06 11:30:11;;;;;;;7.70;2.38;;;;;;;;;;5060324;28;20052;-68
2022/01/06 11:32:44;;;;;;;11.27;3.92;;;;;;;;;;5059457;28;20091;-67
2022/01/06 11:35:20;;;;;;;7.00;3.38;;;;;;;;;;5060615;28;20067;-67
2022/01/06 11:37:51;;;;;;;4.45;2.78;;;;;;;;;;5060938;28;20135;-67
2022/01/06 11:40:31;;;;;;;8.93;2.72;;;;;;;;;;5058362;28;20135;-67
2022/01/06 11:42:58;;;;;;;8.05;2.30;;;;;;;;;;5055610;28;20048;-67
2022/01/06 11:45:25;;;;;;;7.72;2.00;;;;;;;;;;5063205;28;20087;-67
2022/01/06 11:48:02;;;;;;;6.63;2.40;;;;;;;;;;5054594;28;20072;-67
2022/01/06 11:50:34;;;;;;;5.45;2.15;;;;;;;;;;5056400;28;20583;-68
2022/01/06 11:53:01;;;;;;;3.30;1.67;;;;;;;;;;5059508;28;20104;-68
2022/01/06 11:55:30;;;;;;;3.13;1.40;;;;;;;;;;5059529;28;20097;-67
2022/01/06 11:58:06;;;;;;;5.07;1.60;;;;;;;;;;5057414;28;20083;-68
2022/01/06 12:00:35;;;;;;;4.75;1.55;;;;;;;;;;5054331;28;20075;-68
2022/01/06 12:03:03;;;;;;;2.00;1.50;;;;;;;;;;5057945;28;20056;-67
2022/01/06 12:05:48;;;;;;;4.25;1.90;;;;;;;;;;5056554;28;20045;-67
2022/01/06 12:08:16;;;;;;;6.82;2.00;;;;;;;;;;5057161;28;20136;-68
2022/01/06 12:10:46;;;;;;;6.53;1.90;;;;;;;;;;5060420;28;20048;-67
2022/01/06 12:13:13;;;;;;;4.78;1.90;;;;;;;;;;5058531;28;20419;-67
2022/01/06 12:15:48;;;;;;;3.70;1.80;;;;;;;;;;5058643;28;20072;-67
2022/01/06 12:18:21;;;;;;;3.13;1.67;;;;;;;;;;5054037;28;20096;-68
2022/01/06 12:20:48;;;;;;;6.18;1.70;;;;;;;;;;5058373;28;20139;-67
2022/01/06 12:23:15;;;;;;;4.60;1.15;;;;;;;;;;5056841;28;20132;-67
2022/01/06 12:25:58;;;;;;;2.33;1.33;;;;;;;;;;5058054;28;20071;-67
2022/01/06 12:28:25;;;;;;;7.40;1.70;;;;;;;;;;5056398;28;20496;-67
2022/01/06 12:30:56;;;;;;;3.85;1.42;;;;;;;;;;5057446;28;20128;-67
2022/01/06 12:33:23;;;;;;;3.50;1.60;;;;;;;;;;5057479;28;20079;-67
2022/01/06 12:35:56;;;;;;;1.95;1.33;;;;;;;;;;5057127;28;20049;-68
2022/01/06 12:38:30;;;;;;;4.55;1.40;;;;;;;;;;5057740;28;20128;-67
2022/01/06 12:41:03;;;;;;;5.85;1.58;;;;;;;;;;5047932;28;20063;-67
2022/01/06 12:43:34;;;;;;;2.97;1.42;;;;;;;;;;5055647;28;20076;-67
2022/01/06 12:46:05;;;;;;;10.43;2.13;;;;;;;;;;5057105;28;20513;-67
2022/01/06 12:48:35;;;;;;;8.52;2.08;;;;;;;;;;5060997;28;20143;-67
2022/01/06 12:51:02;;;;;;;6.15;2.13;;;;;;;;;;5060395;28;20140;-67
2022/01/06 12:53:30;;;;;;;6.40;1.77;;;;;;;;;;5056818;28;20128;-67
2022/01/06 12:55:57;;;;;;;7.90;2.58;;;;;;;;;;5060005;28;20503;-67
2022/01/06 12:58:29;;;;;;;5.10;1.80;;;;;;;;;;5055810;28;20076;-67
2022/01/06 13:00:56;;;;;;;5.70;1.90;;;;;;;;;;5062869;28;20136;-67
2022/01/06 13:03:47;;;;;;;4.38;2.03;;;;;;;;;;5060252;28;20521;-67
2022/01/06 13:06:14;;;;;;;4.63;1.60;;;;;;;;;;5079201;28;20087;-67
2022/01/06 13:08:45;;;;;;;4.72;1.60;;;;;;;;;;5081271;28;20158;-68
2022/01/06 13:11:12;;;;;;;7.32;2.00;;;;;;;;;;5082904;28;20052;-67
2022/01/06 13:13:45;;;;;;;6.33;2.50;;;;;;;;;;5083359;28;20140;-67
2022/01/06 13:16:13;;;;;;;4.88;2.08;;;;;;;;;;5080704;28;20052;-67
2022/01/06 13:18:39;;;;;;;4.45;2.05;;;;;;;;;;5082732;28;20500;-67
2022/01/06 13:21:06;;;;;;;9.43;2.20;;;;;;;;;;5082098;28;20106;-67
2022/01/06 13:26:06;;;;;;;9.20;1.88;;;;;;;;;;5080682;28;20132;-67
2022/01/06 13:28:33;;;;;;;5.93;2.13;;;;;;;;;;5081774;28;20163;-67
2022/01/06 13:30:59;;;;;;;7.25;2.33;;;;;;;;;;5084495;28;20140;-67
2022/01/06 13:33:31;;;;;;;3.37;1.80;;;;;;;;;;5079350;28;20563;-67
2022/01/06 13:35:59;;;;;;;7.90;2.35;;;;;;;;;;5082155;28;20076;-67
2022/01/06 13:38:27;;;;;;;6.30;2.00;;;;;;;;;;5081595;28;20044;-67
2022/01/06 13:40:53;;;;;;;;;;;;;;;;;;5082658;28;20075;-67
2022/01/06 13:43:23;;;;;;;7.00;1.80;;;;;;;;;;5082603;28;20015;-67
2022/01/06 13:45:51;;;;;;;4.45;2.42;;;;;;;;;;5077351;28;20487;-67
2022/01/06 13:48:40;;;;;;;;;;;;;;;;;;5071489;28;20051;-67
2022/01/06 13:51:14;;;;;;;9.68;1.83;;;;;;;;;;5082866;28;19963;-67
2022/01/06 13:53:51;;;;;;;11.95;2.00;;;;;;;;;;5078092;28;20135;-67
2022/01/06 13:56:29;;;;;;;4.05;1.52;;;;;;;;;;5082383;28;20094;-67
2022/01/06 13:58:57;;;;;;;7.30;1.70;;;;;;;;;;5079493;28;20109;-67
2022/01/06 14:01:28;;;;;;;4.80;1.73;;;;;;;;;;5080388;28;20147;-67
2022/01/06 14:03:55;;;;;;;8.60;1.85;;;;;;;;;;5083310;28;20492;-67
2022/01/06 14:06:22;;;;;;;5.63;1.75;;;;;;;;;;5080487;28;20591;-67
2022/01/06 14:08:48;;;;;;;6.13;2.25;;;;;;;;;;5079139;28;20086;-68
2022/01/06 14:11:16;;;;;;;2.63;1.70;;;;;;;;;;5078664;28;20076;-67
2022/01/06 14:13:43;;;;;;;4.38;2.00;;;;;;;;;;5079422;28;20084;-67
2022/01/06 14:16:10;;;;;;;8.82;1.98;;;;;;;;;;5073414;28;20140;-67
2022/01/06 14:18:37;;;;;;;5.18;1.95;;;;;;;;;;5084752;28;20089;-67
2022/01/06 14:21:04;;;;;;;9.18;2.20;;;;;;;;;;5079962;28;20192;-67
2022/01/06 14:23:32;;;;;;;4.43;2.00;;;;;;;;;;5080229;28;20140;-67
2022/01/06 14:25:59;;;;;;;5.43;1.90;;;;;;;;;;5077515;28;20291;-67
2022/01/06 14:28:26;;;;;;;3.90;2.08;;;;;;;;;;5080137;28;20135;-67
2022/01/06 14:30:57;;;;;;;5.70;2.40;;;;;;;;;;5080233;28;20484;-67
2022/01/06 14:33:25;;;;;;;8.23;2.05;;;;;;;;;;5076492;28;20052;-67
2022/01/06 14:35:52;;;;;;;4.95;2.20;;;;;;;;;;5080958;28;20134;-68
2022/01/06 14:38:33;;;;;;;3.92;1.88;;;;;;;;;;5080444;28;20049;-67
2022/01/06 14:41:00;;;;;;;2.95;1.80;;;;;;;;;;5076979;28;20128;-67
2022/01/06 14:43:26;;;;;;;5.85;2.05;;;;;;;;;;5078367;28;20080;-67
2022/01/06 14:45:54;;;;;;;4.30;1.80;;;;;;;;;;5078454;28;20142;-67
2022/01/06 14:48:20;;;;;;;6.25;1.90;;;;;;;;;;5081314;28;20044;-67
2022/01/06 14:50:47;;;;;;;7.80;2.20;;;;;;;;;;5079389;28;20135;-68
2022/01/06 14:53:13;;;;;;;5.10;2.50;;;;;;;;;;5078705;28;20552;-67
2022/01/06 14:55:40;;;;;;;5.82;2.15;;;;;;;;;;5077746;28;20080;-67
2022/01/06 14:58:07;;;;;;;6.47;2.40;;;;;;;;;;5078859;28;20097;-67
2022/01/06 15:00:34;;;;;;;4.78;2.47;;;;;;;;;;5077924;28;20557;-67
2022/01/06 15:03:04;;;;;;;7.63;2.08;;;;;;;;;;5075975;28;20448;-68